createdAt,value
2022-07-30T00:00:00.780Z,20.63
2022-07-30T00:00:58.116Z,20.63
2022-07-30T00:01:57.911Z,20.66
2022-07-30T00:02:57.885Z,20.66
2022-07-30T00:03:58.134Z,20.6
2022-07-30T00:04:57.895Z,20.63
2022-07-30T00:05:58.594Z,20.59
2022-07-30T00:06:58.152Z,20.56
2022-07-30T00:07:57.904Z,20.6
2022-07-30T00:08:57.899Z,20.6
2022-07-30T00:09:57.918Z,20.63
2022-07-30T00:11:00.943Z,20.55
2022-07-30T00:11:57.933Z,20.5
2022-07-30T00:12:57.937Z,20.53
2022-07-30T00:13:57.921Z,20.58
2022-07-30T00:14:57.888Z,20.6
2022-07-30T00:15:57.925Z,20.55
2022-07-30T00:16:58.913Z,20.44
2022-07-30T00:17:58.376Z,20.58
2022-07-30T00:18:58.675Z,20.52
2022-07-30T00:19:58.541Z,20.59
2022-07-30T00:20:58.663Z,20.48
2022-07-30T00:22:00.796Z,20.48
2022-07-30T00:22:57.938Z,20.39
2022-07-30T00:24:06.453Z,20.42
2022-07-30T00:24:57.922Z,20.49
2022-07-30T00:25:57.919Z,20.4
2022-07-30T00:26:58.074Z,20.42
2022-07-30T00:27:57.909Z,20.49
2022-07-30T00:28:57.926Z,20.49
2022-07-30T00:29:57.968Z,20.46
2022-07-30T00:31:00.950Z,20.5
2022-07-30T00:31:57.918Z,20.4
2022-07-30T00:33:01.059Z,20.5
2022-07-30T00:33:57.945Z,20.48
2022-07-30T00:34:57.935Z,20.39
2022-07-30T00:35:57.933Z,20.48
2022-07-30T00:36:58.349Z,20.4
2022-07-30T00:37:57.963Z,20.4
2022-07-30T00:38:59.136Z,20.34
2022-07-30T00:39:57.928Z,20.36
2022-07-30T00:40:57.937Z,20.4
2022-07-30T00:41:57.936Z,20.44
2022-07-30T00:42:57.982Z,20.36
2022-07-30T00:44:00.823Z,20.39
2022-07-30T00:48:07.741Z,20.32
2022-07-30T00:48:58.369Z,20.19
2022-07-30T00:49:57.961Z,20.4
2022-07-30T00:50:59.481Z,20.37
2022-07-30T00:51:57.956Z,20.42
2022-07-30T00:52:57.997Z,20.46
2022-07-30T00:53:57.998Z,20.4
2022-07-30T00:55:00.990Z,20.39
2022-07-30T00:55:57.965Z,20.4
2022-07-30T00:56:58.944Z,20.34
2022-07-30T00:57:58.941Z,20.29
2022-07-30T00:58:57.988Z,20.36
2022-07-30T01:00:00.831Z,20.36
2022-07-30T01:00:58.219Z,20.22
2022-07-30T01:01:58.152Z,20.39
2022-07-30T01:02:58.016Z,20.26
2022-07-30T01:03:57.980Z,20.34
2022-07-30T01:04:58.002Z,20.19
2022-07-30T01:05:57.980Z,20.32
2022-07-30T01:06:58.432Z,20.32
2022-07-30T01:07:58.009Z,20.24
2022-07-30T01:08:58.003Z,20.26
2022-07-30T01:09:58.003Z,20.24
2022-07-30T01:10:59.130Z,20.33
2022-07-30T01:11:58.011Z,20.39
2022-07-30T01:12:58.022Z,20.24
2022-07-30T01:13:57.998Z,20.26
2022-07-30T01:14:58.005Z,20.3
2022-07-30T01:15:58.023Z,20.33
2022-07-30T01:16:58.418Z,20.24
2022-07-30T01:17:58.037Z,20.26
2022-07-30T01:18:57.998Z,20.24
2022-07-30T01:19:58.006Z,20.34
2022-07-30T01:20:58.031Z,20.3
2022-07-30T01:21:58.013Z,20.27
2022-07-30T01:22:58.035Z,20.27
2022-07-30T01:23:58.016Z,20.24
2022-07-30T01:24:58.019Z,20.22
2022-07-30T01:26:00.107Z,20.24
2022-07-30T01:26:58.286Z,20.21
2022-07-30T01:27:58.079Z,20.24
2022-07-30T01:28:58.035Z,20.24
2022-07-30T01:29:58.028Z,20.29
2022-07-30T01:30:58.037Z,20.3
2022-07-30T01:31:58.256Z,20.29
2022-07-30T01:32:58.080Z,20.24
2022-07-30T01:34:00.586Z,20.22
2022-07-30T01:34:58.111Z,20.19
2022-07-30T01:35:58.040Z,20.27
2022-07-30T01:36:58.158Z,20.29
2022-07-30T01:38:04.085Z,20.15
2022-07-30T01:38:58.040Z,20.27
2022-07-30T01:39:58.107Z,20.21
2022-07-30T01:40:58.048Z,20.22
2022-07-30T01:41:58.056Z,20.3
2022-07-30T01:42:59.346Z,20.22
2022-07-30T01:43:58.069Z,20.27
2022-07-30T01:44:58.053Z,20.15
2022-07-30T01:45:58.302Z,20.19
2022-07-30T01:46:58.335Z,20.26
2022-07-30T01:47:58.082Z,20.26
2022-07-30T01:49:01.043Z,20.26
2022-07-30T01:49:58.071Z,20.33
2022-07-30T01:50:58.068Z,20.22
2022-07-30T01:51:58.086Z,20.26
2022-07-30T01:52:58.093Z,20.21
2022-07-30T01:54:01.074Z,20.21
2022-07-30T01:54:58.073Z,20.18
2022-07-30T01:55:58.075Z,20.21
2022-07-30T01:56:58.504Z,20.24
2022-07-30T01:57:58.090Z,20.12
2022-07-30T01:58:58.082Z,20.15
2022-07-30T01:59:58.088Z,20.08
2022-07-30T02:00:58.414Z,20.14
2022-07-30T02:01:58.089Z,20.1
2022-07-30T02:02:58.149Z,20.08
2022-07-30T02:03:59.470Z,20.15
2022-07-30T02:05:00.917Z,20.11
2022-07-30T02:05:58.144Z,20.26
2022-07-30T02:06:58.398Z,20.26
2022-07-30T02:08:00.100Z,20.26
2022-07-30T02:08:58.107Z,20.21
2022-07-30T02:09:58.116Z,20.26
2022-07-30T02:10:58.102Z,20.17
2022-07-30T02:11:58.175Z,20.19
2022-07-30T02:12:58.126Z,20.26
2022-07-30T02:13:58.097Z,20.11
2022-07-30T02:14:58.126Z,20.12
2022-07-30T02:16:00.989Z,20.17
2022-07-30T02:16:58.379Z,20.15
2022-07-30T02:18:00.078Z,20.17
2022-07-30T02:19:00.623Z,20.08
2022-07-30T02:19:58.144Z,20.04
2022-07-30T02:20:58.666Z,20.1
2022-07-30T02:22:02.598Z,20.11
2022-07-30T02:22:58.144Z,20.1
2022-07-30T02:23:58.125Z,20.07
2022-07-30T02:24:58.137Z,20.07
2022-07-30T02:25:58.130Z,20.04
2022-07-30T02:27:01.712Z,20.03
2022-07-30T02:27:58.172Z,19.97
2022-07-30T02:28:58.134Z,20.07
2022-07-30T02:29:58.132Z,20.11
2022-07-30T02:30:58.171Z,20.1
2022-07-30T02:31:58.303Z,20.11
2022-07-30T02:32:58.185Z,20.02
2022-07-30T02:33:58.140Z,20.02
2022-07-30T02:34:58.153Z,20.07
2022-07-30T02:35:58.150Z,20.02
2022-07-30T02:36:58.452Z,20.04
2022-07-30T02:37:59.974Z,19.97
2022-07-30T02:38:58.194Z,20.03
2022-07-30T02:39:58.149Z,20
2022-07-30T02:40:58.150Z,19.96
2022-07-30T02:41:58.145Z,20.02
2022-07-30T02:42:58.179Z,19.94
2022-07-30T02:43:58.160Z,19.97
2022-07-30T02:44:59.166Z,19.94
2022-07-30T02:45:58.159Z,19.82
2022-07-30T02:46:58.724Z,19.85
2022-07-30T02:47:58.190Z,19.79
2022-07-30T02:49:01.339Z,19.78
2022-07-30T02:49:58.191Z,19.82
2022-07-30T02:50:58.169Z,19.84
2022-07-30T02:51:58.948Z,19.9
2022-07-30T02:52:58.209Z,19.79
2022-07-30T02:53:58.175Z,19.78
2022-07-30T02:54:58.176Z,19.77
2022-07-30T02:55:58.187Z,19.71
2022-07-30T02:56:58.485Z,19.55
2022-07-30T02:57:58.219Z,19.59
2022-07-30T02:58:58.193Z,19.57
2022-07-30T03:00:01.696Z,19.44
2022-07-30T03:00:58.465Z,19.41
2022-07-30T03:01:58.382Z,19.34
2022-07-30T03:03:04.107Z,19.3
2022-07-30T03:03:58.201Z,19.3
2022-07-30T03:04:58.194Z,19.32
2022-07-30T03:05:59.795Z,19.29
2022-07-30T03:06:58.346Z,19.44
2022-07-30T03:07:58.198Z,19.41
2022-07-30T03:08:58.219Z,19.47
2022-07-30T03:10:02.204Z,19.26
2022-07-30T03:11:01.024Z,19.32
2022-07-30T03:11:58.242Z,19.32
2022-07-30T03:12:58.260Z,19.26
2022-07-30T03:13:58.215Z,19.23
2022-07-30T03:14:58.256Z,19.29
2022-07-30T03:15:58.436Z,19.32
2022-07-30T03:16:58.466Z,19.35
2022-07-30T03:18:00.130Z,19.34
2022-07-30T03:18:58.215Z,19.38
2022-07-30T03:19:58.227Z,19.38
2022-07-30T03:20:58.263Z,19.32
2022-07-30T03:22:07.255Z,19.23
2022-07-30T03:22:59.227Z,19.2
2022-07-30T03:23:58.274Z,19.22
2022-07-30T03:24:58.272Z,19.22
2022-07-30T03:25:59.181Z,19.22
2022-07-30T03:27:01.693Z,19.27
2022-07-30T03:27:59.273Z,19.23
2022-07-30T03:29:01.210Z,19.34
2022-07-30T03:29:58.286Z,19.27
2022-07-30T03:30:58.490Z,19.3
2022-07-30T03:31:59.240Z,19.26
2022-07-30T03:32:58.304Z,19.19
2022-07-30T03:33:58.772Z,19.22
2022-07-30T03:35:01.961Z,19.26
2022-07-30T03:35:58.426Z,19.23
2022-07-30T03:36:58.535Z,19.23
2022-07-30T03:38:01.109Z,19.26
2022-07-30T03:38:58.294Z,19.22
2022-07-30T03:39:58.265Z,19.19
2022-07-30T03:40:58.298Z,19.19
2022-07-30T03:42:00.157Z,19.23
2022-07-30T03:42:58.428Z,19.16
2022-07-30T03:43:58.286Z,19.23
2022-07-30T03:44:58.262Z,19.17
2022-07-30T03:45:58.268Z,19.07
2022-07-30T03:46:58.962Z,19.17
2022-07-30T03:47:58.281Z,19.11
2022-07-30T03:48:58.472Z,19.11
2022-07-30T03:49:58.271Z,19.08
2022-07-30T03:50:58.274Z,19.07
2022-07-30T03:51:58.309Z,19.04
2022-07-30T03:52:58.277Z,19.05
2022-07-30T03:53:58.291Z,19.07
2022-07-30T03:54:58.295Z,18.97
2022-07-30T03:55:58.292Z,18.86
2022-07-30T03:56:58.565Z,18.94
2022-07-30T03:57:58.291Z,18.89
2022-07-30T03:58:58.284Z,18.82
2022-07-30T03:59:58.300Z,18.86
2022-07-30T04:00:58.305Z,18.96
2022-07-30T04:02:07.166Z,18.89
2022-07-30T04:02:58.306Z,18.94
2022-07-30T04:03:58.562Z,18.96
2022-07-30T04:05:01.411Z,18.94
2022-07-30T04:05:58.310Z,18.94
2022-07-30T04:06:58.481Z,18.96
2022-07-30T04:07:58.470Z,18.91
2022-07-30T04:08:58.308Z,18.92
2022-07-30T04:10:01.234Z,18.89
2022-07-30T04:10:58.313Z,18.85
2022-07-30T04:11:58.320Z,18.96
2022-07-30T04:12:58.322Z,18.83
2022-07-30T04:13:59.609Z,18.91
2022-07-30T04:14:58.317Z,18.94
2022-07-30T04:16:46.107Z,18.96
2022-07-30T04:17:13.346Z,18.97
2022-07-30T04:18:09.932Z,18.85
2022-07-30T04:19:09.941Z,18.79
2022-07-30T04:20:09.921Z,18.83
2022-07-30T04:21:18.436Z,18.82
2022-07-30T04:22:11.237Z,18.78
2022-07-30T04:23:09.924Z,18.82
2022-07-30T04:24:10.415Z,18.67
2022-07-30T04:25:09.936Z,18.74
2022-07-30T04:26:09.942Z,18.85
2022-07-30T04:27:09.940Z,18.78
2022-07-30T04:28:09.938Z,18.86
2022-07-30T04:29:13.446Z,18.78
2022-07-30T04:30:09.965Z,18.81
2022-07-30T04:31:10.152Z,18.82
2022-07-30T04:32:09.935Z,18.68
2022-07-30T04:33:13.144Z,18.89
2022-07-30T04:34:09.978Z,18.91
2022-07-30T04:35:09.945Z,18.85
2022-07-30T04:36:11.945Z,18.91
2022-07-30T04:37:09.951Z,18.91
2022-07-30T04:38:09.990Z,18.96
2022-07-30T04:39:10.017Z,18.97
2022-07-30T04:40:09.948Z,18.98
2022-07-30T04:41:09.952Z,19.01
2022-07-30T04:42:09.965Z,18.97
2022-07-30T04:43:09.969Z,18.98
2022-07-30T04:44:13.329Z,19.01
2022-07-30T04:45:11.694Z,19.08
2022-07-30T04:46:10.203Z,19.09
2022-07-30T04:47:10.257Z,19.07
2022-07-30T04:48:09.976Z,19.17
2022-07-30T04:49:10.366Z,19.07
2022-07-30T04:50:09.968Z,19.08
2022-07-30T04:51:09.974Z,19.05
2022-07-30T04:52:09.977Z,19.07
2022-07-30T04:53:09.983Z,19.07
2022-07-30T04:54:15.137Z,18.98
2022-07-30T04:55:13.195Z,19.16
2022-07-30T04:56:09.990Z,19.22
2022-07-30T04:57:10.599Z,19.19
2022-07-30T04:58:09.994Z,19.16
2022-07-30T04:59:10.017Z,19.27
2022-07-30T05:00:09.994Z,19.2
2022-07-30T05:01:10.045Z,19.19
2022-07-30T05:02:10.401Z,19.23
2022-07-30T05:03:10.000Z,19.19
2022-07-30T05:04:10.019Z,19.23
2022-07-30T05:05:10.109Z,19.19
2022-07-30T05:06:13.343Z,19.2
2022-07-30T05:07:10.009Z,19.27
2022-07-30T05:08:10.003Z,19.24
2022-07-30T05:09:10.036Z,19.2
2022-07-30T05:10:10.034Z,19.23
2022-07-30T05:11:10.012Z,19.09
2022-07-30T05:12:10.009Z,19.11
2022-07-30T05:13:13.125Z,19.17
2022-07-30T05:14:11.414Z,19.19
2022-07-30T05:15:10.028Z,19.22
2022-07-30T05:16:10.374Z,19.34
2022-07-30T05:17:12.894Z,19.22
2022-07-30T05:18:10.019Z,19.23
2022-07-30T05:19:12.555Z,19.27
2022-07-30T05:20:10.030Z,19.34
2022-07-30T05:21:10.049Z,19.32
2022-07-30T05:22:11.453Z,19.37
2022-07-30T05:23:10.035Z,19.42
2022-07-30T05:24:13.117Z,19.42
2022-07-30T05:25:20.643Z,19.38
2022-07-30T05:26:10.056Z,19.39
2022-07-30T05:27:10.087Z,19.35
2022-07-30T05:28:12.817Z,19.38
2022-07-30T05:29:22.009Z,19.44
2022-07-30T05:30:15.287Z,19.44
2022-07-30T05:31:14.811Z,19.41
2022-07-30T05:32:11.890Z,19.49
2022-07-30T05:33:20.324Z,19.48
2022-07-30T05:34:10.102Z,19.47
2022-07-30T05:35:10.121Z,19.52
2022-07-30T05:36:10.085Z,19.57
2022-07-30T05:37:14.827Z,19.48
2022-07-30T05:38:10.074Z,19.62
2022-07-30T05:39:10.159Z,19.49
2022-07-30T05:40:10.094Z,19.63
2022-07-30T05:41:34.893Z,19.55
2022-07-30T05:42:14.324Z,19.47
2022-07-30T05:43:10.065Z,19.62
2022-07-30T05:44:10.213Z,19.48
2022-07-30T05:45:13.092Z,19.59
2022-07-30T05:46:10.287Z,19.57
2022-07-30T05:47:10.104Z,19.57
2022-07-30T05:48:10.095Z,19.62
2022-07-30T05:49:11.374Z,19.55
2022-07-30T05:50:10.235Z,19.62
2022-07-30T05:51:10.102Z,19.66
2022-07-30T05:52:10.808Z,19.74
2022-07-30T05:53:10.096Z,19.81
2022-07-30T05:54:10.103Z,19.79
2022-07-30T05:55:10.122Z,19.75
2022-07-30T05:56:10.091Z,19.81
2022-07-30T05:57:10.092Z,19.82
2022-07-30T05:58:10.091Z,19.87
2022-07-30T05:59:10.154Z,19.75
2022-07-30T06:00:13.286Z,19.74
2022-07-30T06:01:10.185Z,19.81
2022-07-30T06:02:10.101Z,19.78
2022-07-30T06:03:10.120Z,19.75
2022-07-30T06:04:10.294Z,19.75
2022-07-30T06:05:10.218Z,19.84
2022-07-30T06:06:10.198Z,19.87
2022-07-30T06:07:10.105Z,20.03
2022-07-30T06:08:10.239Z,19.87
2022-07-30T06:09:10.110Z,19.99
2022-07-30T06:10:10.135Z,20.1
2022-07-30T06:11:12.872Z,20.02
2022-07-30T06:12:10.122Z,20
2022-07-30T06:13:10.130Z,19.97
2022-07-30T06:14:10.138Z,19.99
2022-07-30T06:15:10.144Z,20.08
2022-07-30T06:16:10.332Z,20.11
2022-07-30T06:17:10.126Z,20.15
2022-07-30T06:18:11.054Z,20.19
2022-07-30T06:19:10.145Z,20.21
2022-07-30T06:20:10.160Z,20.18
2022-07-30T06:21:10.130Z,20.24
2022-07-30T06:22:14.564Z,20.15
2022-07-30T06:23:10.139Z,20.29
2022-07-30T06:24:10.138Z,20.3
2022-07-30T06:25:11.388Z,20.37
2022-07-30T06:26:10.159Z,20.39
2022-07-30T06:27:10.162Z,20.26
2022-07-30T06:28:41.090Z,20.3
2022-07-30T06:29:11.333Z,20.24
2022-07-30T06:30:10.307Z,20.24
2022-07-30T06:31:10.433Z,20.52
2022-07-30T06:32:10.150Z,20.52
2022-07-30T06:33:13.228Z,20.46
2022-07-30T06:34:10.174Z,20.66
2022-07-30T06:35:10.205Z,20.74
2022-07-30T06:36:16.060Z,20.73
2022-07-30T06:37:10.179Z,20.73
2022-07-30T06:38:13.327Z,20.75
2022-07-30T06:39:10.386Z,20.82
2022-07-30T06:40:10.180Z,20.86
2022-07-30T06:41:10.169Z,21.2
2022-07-30T06:42:10.186Z,21.19
2022-07-30T06:43:10.173Z,21.38
2022-07-30T06:44:13.197Z,21.51
2022-07-30T06:45:10.211Z,21.51
2022-07-30T06:46:10.499Z,21.45
2022-07-30T06:47:13.531Z,21.5
2022-07-30T06:48:10.187Z,21.48
2022-07-30T06:49:11.592Z,21.51
2022-07-30T06:50:11.334Z,21.44
2022-07-30T06:51:10.229Z,21.5
2022-07-30T06:52:10.186Z,21.48
2022-07-30T06:53:10.230Z,21.43
2022-07-30T06:54:10.198Z,21.45
2022-07-30T06:55:13.012Z,21.53
2022-07-30T06:56:10.198Z,21.48
2022-07-30T06:57:11.011Z,21.43
2022-07-30T06:58:10.209Z,21.41
2022-07-30T06:59:10.211Z,21.25
2022-07-30T07:00:13.487Z,21.29
2022-07-30T07:01:18.783Z,21.17
2022-07-30T07:02:10.236Z,21.25
2022-07-30T07:03:14.526Z,21.28
2022-07-30T07:04:10.415Z,21.33
2022-07-30T07:05:10.239Z,21.14
2022-07-30T07:06:10.212Z,21.22
2022-07-30T07:07:41.653Z,21.22
2022-07-30T07:08:10.217Z,21.25
2022-07-30T07:09:10.227Z,21.15
2022-07-30T07:10:10.856Z,21.29
2022-07-30T07:11:13.517Z,21.4
2022-07-30T07:12:10.088Z,21.54
2022-07-30T07:13:12.441Z,21.62
2022-07-30T07:14:10.232Z,21.89
2022-07-30T07:15:10.258Z,22.12
2022-07-30T07:16:10.234Z,22.21
2022-07-30T07:17:13.830Z,22.25
2022-07-30T07:18:10.243Z,22.19
2022-07-30T07:19:10.237Z,22.12
2022-07-30T07:20:10.273Z,22.15
2022-07-30T07:21:12.531Z,22.22
2022-07-30T07:22:13.099Z,22.26
2022-07-30T07:23:16.452Z,22.34
2022-07-30T07:24:10.246Z,22.38
2022-07-30T07:25:10.269Z,22.55
2022-07-30T07:26:10.249Z,22.51
2022-07-30T07:27:19.910Z,22.61
2022-07-30T07:28:19.396Z,22.38
2022-07-30T07:29:10.250Z,22.43
2022-07-30T07:30:11.992Z,22.53
2022-07-30T07:31:10.603Z,22.16
2022-07-30T07:32:14.948Z,22.41
2022-07-30T07:33:16.394Z,22.61
2022-07-30T07:34:22.601Z,22.56
2022-07-30T07:35:14.816Z,22.51
2022-07-30T07:36:14.800Z,22.71
2022-07-30T07:37:14.832Z,22.68
2022-07-30T07:38:14.806Z,22.76
2022-07-30T07:39:19.496Z,22.89
2022-07-30T07:40:15.107Z,22.93
2022-07-30T07:41:14.804Z,22.93
2022-07-30T07:42:14.807Z,22.78
2022-07-30T07:43:14.813Z,22.84
2022-07-30T07:44:14.830Z,22.77
2022-07-30T07:45:14.838Z,22.74
2022-07-30T07:46:14.983Z,22.77
2022-07-30T07:47:14.818Z,22.8
2022-07-30T07:48:14.811Z,22.93
2022-07-30T07:49:15.078Z,22.86
2022-07-30T07:50:14.854Z,22.89
2022-07-30T07:51:14.827Z,22.93
2022-07-30T07:52:14.822Z,23.04
2022-07-30T07:53:14.842Z,23.06
2022-07-30T07:54:25.805Z,23.04
2022-07-30T07:55:16.386Z,23.07
2022-07-30T07:56:16.106Z,23.1
2022-07-30T07:57:19.225Z,22.78
2022-07-30T07:58:22.149Z,22.84
2022-07-30T07:59:19.491Z,22.89
2022-07-30T08:00:14.871Z,22.7
2022-07-30T08:01:15.129Z,22.74
2022-07-30T08:02:15.097Z,22.78
2022-07-30T08:03:14.841Z,22.71
2022-07-30T08:04:15.298Z,22.63
2022-07-30T08:05:14.879Z,22.76
2022-07-30T08:06:22.593Z,22.71
2022-07-30T08:07:15.038Z,22.56
2022-07-30T08:08:14.853Z,22.58
2022-07-30T08:09:14.865Z,22.53
2022-07-30T08:10:14.873Z,22.55
2022-07-30T08:11:14.855Z,22.78
2022-07-30T08:12:14.865Z,23.04
2022-07-30T08:13:56.499Z,23.49
2022-07-30T08:14:14.861Z,23.55
2022-07-30T08:15:17.065Z,23.81
2022-07-30T08:16:17.269Z,23.7
2022-07-30T08:17:15.116Z,23.88
2022-07-30T08:18:14.869Z,24.1
2022-07-30T08:19:14.868Z,24.28
2022-07-30T08:20:14.910Z,24.29
2022-07-30T08:21:14.877Z,24.51
2022-07-30T08:22:17.793Z,24.56
2022-07-30T08:23:14.874Z,23.91
2022-07-30T08:24:14.954Z,24.07
2022-07-30T08:25:26.508Z,24.04
2022-07-30T08:26:14.925Z,24.07
2022-07-30T08:27:14.934Z,24.07
2022-07-30T08:28:40.718Z,24.07
2022-07-30T08:29:21.313Z,23.86
2022-07-30T08:30:14.957Z,23.77
2022-07-30T08:31:14.902Z,23.77
2022-07-30T08:32:15.902Z,23.79
2022-07-30T08:33:17.743Z,23.95
2022-07-30T08:34:14.939Z,23.95
2022-07-30T08:35:14.956Z,23.89
2022-07-30T08:36:15.091Z,23.88
2022-07-30T08:37:18.513Z,24.03
2022-07-30T08:38:15.037Z,24.09
2022-07-30T08:39:14.926Z,24.1
2022-07-30T08:40:14.944Z,23.88
2022-07-30T08:41:14.932Z,23.91
2022-07-30T08:42:14.935Z,23.81
2022-07-30T08:43:14.969Z,23.94
2022-07-30T08:44:20.351Z,23.76
2022-07-30T08:45:14.983Z,23.81
2022-07-30T08:46:14.978Z,23.56
2022-07-30T08:47:14.965Z,23.64
2022-07-30T08:48:19.455Z,23.54
2022-07-30T08:49:17.676Z,23.62
2022-07-30T08:50:19.026Z,23.37
2022-07-30T08:51:14.949Z,23.26
2022-07-30T08:52:14.956Z,23.08
2022-07-30T08:53:14.935Z,23.23
2022-07-30T08:54:14.976Z,23.1
2022-07-30T08:55:18.050Z,23.33
2022-07-30T08:56:14.943Z,23.23
2022-07-30T08:57:14.942Z,23.28
2022-07-30T08:58:20.449Z,23.26
2022-07-30T08:59:14.939Z,23.23
2022-07-30T09:00:16.157Z,23.29
2022-07-30T09:01:14.948Z,23.44
2022-07-30T09:02:29.178Z,23.62
2022-07-30T09:03:14.988Z,23.55
2022-07-30T09:04:14.972Z,23.66
2022-07-30T09:05:15.005Z,23.69
2022-07-30T09:06:14.997Z,23.84
2022-07-30T09:07:15.598Z,23.91
2022-07-30T09:08:20.847Z,24.26
2022-07-30T09:09:14.964Z,24.4
2022-07-30T09:10:16.021Z,24.38
2022-07-30T09:11:17.806Z,24.43
2022-07-30T09:12:14.973Z,24.44
2022-07-30T09:13:18.125Z,24.24
2022-07-30T09:14:14.986Z,24.4
2022-07-30T09:15:14.982Z,24.51
2022-07-30T09:17:14.977Z,24.37
2022-07-30T09:18:15.006Z,24.41
2022-07-30T09:19:14.987Z,24.48
2022-07-30T09:20:14.981Z,24.55
2022-07-30T09:21:15.015Z,24.65
2022-07-30T09:22:18.034Z,24.66
2022-07-30T09:23:14.981Z,24.84
2022-07-30T09:24:14.999Z,24.84
2022-07-30T09:25:14.993Z,24.78
2022-07-30T09:26:14.995Z,24.94
2022-07-30T09:27:14.996Z,25.25
2022-07-30T09:28:23.343Z,25.43
2022-07-30T09:29:14.995Z,25.41
2022-07-30T09:30:15.003Z,25.48
2022-07-30T09:31:15.106Z,25.52
2022-07-30T09:32:15.013Z,25.55
2022-07-30T09:33:20.178Z,25.89
2022-07-30T09:34:15.011Z,25.68
2022-07-30T09:35:15.013Z,25.51
2022-07-30T09:36:18.517Z,25.58
2022-07-30T09:37:17.273Z,25.46
2022-07-30T09:38:15.031Z,25.48
2022-07-30T09:39:15.012Z,25.44
2022-07-30T09:40:15.023Z,25.46
2022-07-30T09:41:41.544Z,25.49
2022-07-30T09:42:15.902Z,25.46
2022-07-30T09:43:15.020Z,25.54
2022-07-30T09:44:16.197Z,25.61
2022-07-30T09:45:15.026Z,25.67
2022-07-30T09:46:15.032Z,25.67
2022-07-30T09:47:15.039Z,25.8
2022-07-30T09:48:15.417Z,25.74
2022-07-30T09:49:15.513Z,25.76
2022-07-30T09:50:29.188Z,25.73
2022-07-30T09:51:24.822Z,25.96
2022-07-30T09:52:15.360Z,26.16
2022-07-30T09:53:16.758Z,26.29
2022-07-30T09:54:15.312Z,26.55
2022-07-30T09:55:17.886Z,26.79
2022-07-30T09:56:16.989Z,27
2022-07-30T09:57:30.938Z,27.1
2022-07-30T09:58:28.816Z,27.28
2022-07-30T09:59:24.232Z,27.45
2022-07-30T10:00:16.447Z,27.63
2022-07-30T10:01:15.068Z,27.75
2022-07-30T10:02:16.412Z,27.73
2022-07-30T10:03:42.277Z,27.9
2022-07-30T10:04:15.733Z,28.25
2022-07-30T10:05:21.442Z,28.25
2022-07-30T10:06:19.331Z,28.22
2022-07-30T10:07:27.531Z,28.04
2022-07-30T10:08:21.486Z,27.98
2022-07-30T10:09:23.015Z,28.15
2022-07-30T10:10:19.402Z,28.2
2022-07-30T10:11:16.121Z,28.15
2022-07-30T10:12:16.925Z,28
2022-07-30T10:13:23.017Z,27.93
2022-07-30T10:14:15.950Z,28.18
2022-07-30T10:15:18.079Z,27.95
2022-07-30T10:16:15.213Z,28.18
2022-07-30T10:17:19.741Z,28.41
2022-07-30T10:18:15.819Z,28.33
2022-07-30T10:19:42.166Z,28.27
2022-07-30T10:20:17.145Z,28.16
2022-07-30T10:21:19.250Z,28.34
2022-07-30T10:22:19.268Z,28.22
2022-07-30T10:23:24.341Z,28.22
2022-07-30T10:24:15.547Z,28.43
2022-07-30T10:25:22.879Z,28.68
2022-07-30T10:26:19.407Z,28.77
2022-07-30T10:27:16.844Z,28.82
2022-07-30T10:28:15.414Z,28.9
2022-07-30T10:29:18.239Z,28.77
2022-07-30T10:30:18.588Z,28.87
2022-07-30T10:31:56.893Z,29.12
2022-07-30T10:32:15.807Z,29.15
2022-07-30T10:33:42.642Z,29.09
2022-07-30T10:34:16.246Z,29.25
2022-07-30T10:35:37.915Z,29.44
2022-07-30T10:36:16.563Z,29.52
2022-07-30T10:37:17.165Z,29.49
2022-07-30T10:38:19.324Z,29.43
2022-07-30T10:39:15.516Z,29.46
2022-07-30T10:40:16.381Z,29.28
2022-07-30T10:41:22.166Z,29.21
2022-07-30T10:42:15.433Z,28.8
2022-07-30T10:43:20.529Z,28.83
2022-07-30T10:44:23.233Z,28.74
2022-07-30T10:45:22.167Z,28.71
2022-07-30T10:46:29.414Z,28.4
2022-07-30T10:47:15.659Z,28.41
2022-07-30T10:48:17.977Z,28.27
2022-07-30T10:49:22.284Z,28.27
2022-07-30T10:50:17.887Z,28.15
2022-07-30T10:51:39.481Z,27.76
2022-07-30T10:52:15.159Z,27.75
2022-07-30T10:53:15.733Z,27.45
2022-07-30T10:54:17.779Z,27.3
2022-07-30T10:55:36.442Z,27.19
2022-07-30T10:56:15.184Z,27.23
2022-07-30T10:57:32.498Z,27.18
2022-07-30T10:58:22.831Z,27.07
2022-07-30T10:59:17.317Z,27.03
2022-07-30T11:00:20.133Z,26.82
2022-07-30T11:01:30.461Z,26.71
2022-07-30T11:02:20.065Z,26.64
2022-07-30T11:03:20.544Z,26.46
2022-07-30T11:04:15.184Z,26.27
2022-07-30T11:05:17.901Z,26.24
2022-07-30T11:06:15.279Z,26.24
2022-07-30T11:07:21.598Z,25.96
2022-07-30T11:08:18.921Z,25.78
2022-07-30T11:09:16.112Z,25.76
2022-07-30T11:10:15.255Z,25.76
2022-07-30T11:12:06.654Z,25.78
2022-07-30T11:12:31.657Z,25.74
2022-07-30T11:13:30.956Z,25.68
2022-07-30T11:14:29.328Z,25.62
2022-07-30T11:15:35.327Z,25.56
2022-07-30T11:16:28.439Z,25.58
2022-07-30T11:17:27.237Z,25.73
2022-07-30T11:18:33.908Z,25.83
2022-07-30T11:20:04.088Z,25.74
2022-07-30T11:20:29.010Z,25.78
2022-07-30T11:21:30.945Z,25.83
2022-07-30T11:22:27.713Z,25.78
2022-07-30T11:23:28.533Z,25.76
2022-07-30T11:24:27.257Z,25.76
2022-07-30T11:25:54.868Z,25.71
2022-07-30T11:26:31.562Z,25.83
2022-07-30T11:27:29.365Z,25.73
2022-07-30T11:28:32.216Z,25.73
2022-07-30T11:29:53.540Z,25.61
2022-07-30T11:30:30.667Z,25.7
2022-07-30T11:32:05.280Z,25.73
2022-07-30T11:32:27.274Z,25.74
2022-07-30T11:33:37.142Z,25.71
2022-07-30T11:34:33.692Z,25.93
2022-07-30T11:35:32.406Z,26.08
2022-07-30T11:36:28.980Z,26.22
2022-07-30T11:37:38.536Z,26.6
2022-07-30T11:38:27.277Z,26.93
2022-07-30T11:39:43.267Z,27.05
2022-07-30T11:40:31.173Z,27.18
2022-07-30T11:41:27.322Z,27.13
2022-07-30T11:42:27.283Z,27.01
2022-07-30T11:43:41.072Z,27.1
2022-07-30T11:44:27.286Z,27.16
2022-07-30T11:45:30.043Z,27.15
2022-07-30T11:46:34.330Z,27.07
2022-07-30T11:47:27.291Z,27.01
2022-07-30T11:48:27.301Z,26.96
2022-07-30T11:49:27.626Z,27.11
2022-07-30T11:50:30.115Z,27.2
2022-07-30T11:51:27.324Z,27.15
2022-07-30T11:52:27.315Z,27.28
2022-07-30T11:53:27.305Z,27.35
2022-07-30T11:54:27.309Z,27.18
2022-07-30T11:55:27.304Z,27.18
2022-07-30T11:56:30.335Z,27.05
2022-07-30T11:57:40.759Z,26.51
2022-07-30T11:58:27.314Z,26.59
2022-07-30T11:59:27.321Z,26.63
2022-07-30T12:00:27.404Z,26.61
2022-07-30T12:01:30.714Z,26.53
2022-07-30T12:02:27.354Z,26.41
2022-07-30T12:03:29.799Z,26.31
2022-07-30T12:04:27.330Z,26.41
2022-07-30T12:05:27.328Z,26.41
2022-07-30T12:06:27.343Z,26.59
2022-07-30T12:07:27.334Z,26.36
2022-07-30T12:08:40.832Z,26.48
2022-07-30T12:09:29.947Z,26.6
2022-07-30T12:10:33.181Z,26.53
2022-07-30T12:11:27.359Z,26.51
2022-07-30T12:12:30.490Z,26.41
2022-07-30T12:13:52.310Z,26.37
2022-07-30T12:14:27.362Z,26.3
2022-07-30T12:15:27.353Z,26.24
2022-07-30T12:16:27.391Z,26.11
2022-07-30T12:17:27.609Z,25.96
2022-07-30T12:18:31.551Z,25.55
2022-07-30T12:19:27.356Z,25.73
2022-07-30T12:20:27.355Z,25.68
2022-07-30T12:21:27.391Z,25.62
2022-07-30T12:22:27.358Z,25.43
2022-07-30T12:23:30.506Z,25.44
2022-07-30T12:24:27.366Z,25.37
2022-07-30T12:25:27.376Z,25.3
2022-07-30T12:26:29.153Z,25.46
2022-07-30T12:27:27.371Z,25.36
2022-07-30T12:28:27.374Z,25.44
2022-07-30T12:29:27.376Z,25.44
2022-07-30T12:30:27.368Z,25.43
2022-07-30T12:31:27.395Z,25.62
2022-07-30T12:32:27.374Z,25.73
2022-07-30T12:33:27.396Z,25.91
2022-07-30T12:34:27.392Z,25.98
2022-07-30T12:35:27.378Z,26.15
2022-07-30T12:36:27.390Z,26.3
2022-07-30T12:37:27.731Z,26.61
2022-07-30T12:38:27.395Z,26.98
2022-07-30T12:39:30.432Z,27.29
2022-07-30T12:40:27.401Z,27.25
2022-07-30T12:41:27.400Z,27.26
2022-07-30T12:42:27.406Z,27.19
2022-07-30T12:43:27.401Z,27.34
2022-07-30T12:44:27.403Z,27.26
2022-07-30T12:45:27.436Z,27.41
2022-07-30T12:46:27.411Z,27.4
2022-07-30T12:47:27.421Z,27.61
2022-07-30T12:48:29.533Z,27.81
2022-07-30T12:49:49.331Z,28.01
2022-07-30T12:50:27.416Z,28.22
2022-07-30T12:51:27.556Z,28.23
2022-07-30T12:52:34.470Z,28.15
2022-07-30T12:53:27.417Z,28.43
2022-07-30T12:54:27.440Z,28.65
2022-07-30T12:55:30.430Z,28.72
2022-07-30T12:56:27.420Z,28.9
2022-07-30T12:57:27.423Z,29.1
2022-07-30T12:58:27.430Z,28.87
2022-07-30T12:59:27.431Z,29.35